createdAt,value
2017-07-07T00:00:50.383Z,18.46
2017-07-07T00:02:05.850Z,18.42
2017-07-07T00:03:21.357Z,18.4
2017-07-07T00:04:37.068Z,18.37
2017-07-07T00:06:23.615Z,18.34
2017-07-07T00:07:39.163Z,18.4
2017-07-07T00:08:53.332Z,18.28
2017-07-07T00:10:07.815Z,18.47
2017-07-07T00:11:22.889Z,18.37
2017-07-07T00:12:38.536Z,18.34
2017-07-07T00:13:53.985Z,18.4
2017-07-07T00:15:09.666Z,18.35
2017-07-07T00:16:25.102Z,18.32
2017-07-07T00:17:39.233Z,18.41
2017-07-07T00:18:54.748Z,18.34
2017-07-07T00:20:10.485Z,18.37
2017-07-07T00:21:25.910Z,18.4
2017-07-07T00:22:41.332Z,18.41
2017-07-07T00:23:56.851Z,18.4
2017-07-07T00:25:12.622Z,18.4
2017-07-07T00:26:28.042Z,18.31
2017-07-07T00:27:43.671Z,18.4
2017-07-07T00:28:57.950Z,18.31
2017-07-07T00:30:13.778Z,18.37
2017-07-07T00:32:58.298Z,18.34
2017-07-07T00:34:13.972Z,18.31
2017-07-07T00:35:29.707Z,18.22
2017-07-07T00:36:45.148Z,18.3
2017-07-07T00:38:00.553Z,18.28
2017-07-07T00:39:16.036Z,18.23
2017-07-07T00:40:31.750Z,18.19
2017-07-07T00:41:47.426Z,18.26
2017-07-07T00:43:02.863Z,18.3
2017-07-07T00:44:18.373Z,18.22
2017-07-07T00:45:32.833Z,18.31
2017-07-07T00:46:48.279Z,18.22
2017-07-07T00:48:03.715Z,18.28
2017-07-07T00:49:19.156Z,18.28
2017-07-07T00:50:34.795Z,18.28
2017-07-07T00:51:48.800Z,18.31
2017-07-07T00:53:04.231Z,18.16
2017-07-07T00:54:19.650Z,18.12
2017-07-07T00:55:34.015Z,18.09
2017-07-07T00:56:49.506Z,18.07
2017-07-07T00:58:03.858Z,18.1
2017-07-07T00:59:17.843Z,18.1
2017-07-07T01:00:33.542Z,18.05
2017-07-07T01:01:49.002Z,18.05
2017-07-07T01:03:04.438Z,18.04
2017-07-07T01:04:20.059Z,18.04
2017-07-07T01:05:35.773Z,18.07
2017-07-07T01:06:51.224Z,18.1
2017-07-07T01:08:06.843Z,17.98
2017-07-07T01:09:22.257Z,18.05
2017-07-07T01:10:37.955Z,18.05
2017-07-07T01:11:53.544Z,18.1
2017-07-07T01:13:07.797Z,18.09
2017-07-07T01:14:23.495Z,18.05
2017-07-07T01:15:39.462Z,18.12
2017-07-07T01:16:54.917Z,18.15
2017-07-07T01:18:10.343Z,18.1
2017-07-07T01:19:25.768Z,18.13
2017-07-07T01:20:41.490Z,18.1
2017-07-07T01:21:55.497Z,18.22
2017-07-07T01:23:10.905Z,18.17
2017-07-07T01:24:26.573Z,18.17
2017-07-07T01:25:42.278Z,18.28
2017-07-07T01:26:57.696Z,18.25
2017-07-07T01:28:13.525Z,18.26
2017-07-07T01:29:28.966Z,18.23
2017-07-07T01:30:43.192Z,18.25
2017-07-07T01:31:57.352Z,18.32
2017-07-07T01:33:12.814Z,18.3
2017-07-07T01:34:28.273Z,18.26
2017-07-07T01:35:43.920Z,18.31
2017-07-07T01:36:59.459Z,18.31
2017-07-07T01:38:15.103Z,18.34
2017-07-07T01:39:30.724Z,18.3
2017-07-07T01:40:46.411Z,18.34
2017-07-07T01:42:02.058Z,18.28
2017-07-07T01:43:17.559Z,18.2
2017-07-07T01:44:32.952Z,18.26
2017-07-07T01:45:48.232Z,18.19
2017-07-07T01:47:03.676Z,18.2
2017-07-07T01:48:19.100Z,18.19
2017-07-07T01:49:34.535Z,18.12
2017-07-07T01:50:50.262Z,18.12
2017-07-07T01:52:05.702Z,18.1
2017-07-07T01:53:21.266Z,18.1
2017-07-07T01:54:36.670Z,18.12
2017-07-07T01:55:52.357Z,18.13
2017-07-07T01:57:06.707Z,18.12
2017-07-07T01:58:22.226Z,18.1
2017-07-07T01:59:37.673Z,18.13
2017-07-07T02:00:51.717Z,18.12
2017-07-07T02:02:06.006Z,18.17
2017-07-07T02:03:21.457Z,18.13
2017-07-07T02:04:37.204Z,18.13
2017-07-07T02:05:52.707Z,18.16
2017-07-07T02:07:08.400Z,18.16
2017-07-07T02:08:23.805Z,18.1
2017-07-07T02:09:39.318Z,18.19
2017-07-07T02:10:54.790Z,18.13
2017-07-07T02:12:10.402Z,18.23
2017-07-07T02:13:24.321Z,18.09
2017-07-07T02:14:39.743Z,18.12
2017-07-07T02:15:55.216Z,18.15
2017-07-07T02:17:10.869Z,18.15
2017-07-07T02:18:26.491Z,18.25
2017-07-07T02:19:41.928Z,18.15
2017-07-07T02:20:57.361Z,18.13
2017-07-07T02:22:13.032Z,18.13
2017-07-07T02:23:28.465Z,18.12
2017-07-07T02:24:43.899Z,18.09
2017-07-07T02:25:59.326Z,18.05
2017-07-07T02:27:15.003Z,18.09
2017-07-07T02:28:30.650Z,17.91
2017-07-07T02:29:46.431Z,18.12
2017-07-07T02:31:01.881Z,17.98
2017-07-07T02:32:16.232Z,17.95
2017-07-07T02:33:31.642Z,18
2017-07-07T02:34:47.099Z,18.05
2017-07-07T02:36:02.581Z,17.98
2017-07-07T02:37:18.257Z,17.85
2017-07-07T02:38:33.581Z,17.86
2017-07-07T02:39:49.034Z,17.95
2017-07-07T02:41:04.460Z,17.91
2017-07-07T02:42:20.126Z,17.91
2017-07-07T02:43:34.377Z,17.8
2017-07-07T02:44:48.617Z,17.7
2017-07-07T02:46:03.977Z,17.73
2017-07-07T02:47:19.753Z,17.75
2017-07-07T02:48:35.369Z,17.68
2017-07-07T02:49:50.835Z,17.68
2017-07-07T02:51:06.245Z,17.76
2017-07-07T02:52:21.958Z,17.72
2017-07-07T02:53:37.422Z,17.68
2017-07-07T02:54:52.848Z,17.61
2017-07-07T02:56:08.248Z,17.67
2017-07-07T02:57:22.586Z,17.62
2017-07-07T02:58:38.001Z,17.62
2017-07-07T02:59:53.477Z,17.65
2017-07-07T03:01:09.035Z,17.61
2017-07-07T03:02:24.746Z,17.64
2017-07-07T03:03:40.155Z,17.67
2017-07-07T03:04:55.532Z,17.64
2017-07-07T03:06:10.956Z,17.62
2017-07-07T03:07:26.642Z,17.61
2017-07-07T03:08:42.083Z,17.58
2017-07-07T03:09:57.544Z,17.61
2017-07-07T03:11:13.014Z,17.55
2017-07-07T03:12:28.731Z,17.61
2017-07-07T03:13:44.121Z,17.62
2017-07-07T03:14:58.258Z,17.57
2017-07-07T03:16:13.705Z,17.62
2017-07-07T03:17:29.777Z,17.62
2017-07-07T03:18:45.340Z,17.67
2017-07-07T03:20:01.042Z,17.58
2017-07-07T03:21:16.470Z,17.77
2017-07-07T03:22:32.148Z,17.75
2017-07-07T03:23:47.630Z,17.82
2017-07-07T03:25:03.052Z,17.85
2017-07-07T03:26:18.632Z,17.94
2017-07-07T03:27:34.326Z,17.91
2017-07-07T03:28:49.778Z,17.92
2017-07-07T03:30:05.425Z,17.91
2017-07-07T03:31:20.884Z,17.92
2017-07-07T03:32:35.196Z,17.91
2017-07-07T03:33:50.604Z,17.86
2017-07-07T03:35:06.019Z,17.87
2017-07-07T03:36:21.731Z,17.87
2017-07-07T03:37:36.088Z,17.85
2017-07-07T03:38:51.526Z,17.87
2017-07-07T03:40:05.526Z,17.91
2017-07-07T03:41:21.248Z,17.97
2017-07-07T03:42:36.914Z,17.92
2017-07-07T03:43:52.375Z,17.8
2017-07-07T03:45:05.229Z,17.94
2017-07-07T03:46:20.657Z,18
2017-07-07T03:47:34.979Z,18.04
2017-07-07T03:48:50.466Z,18
2017-07-07T03:50:05.880Z,17.97
2017-07-07T03:51:21.345Z,17.91
2017-07-07T03:52:37.108Z,17.86
2017-07-07T03:53:52.467Z,17.82
2017-07-07T03:55:04.893Z,17.83
2017-07-07T03:56:20.320Z,17.72
2017-07-07T03:57:36.155Z,17.77
2017-07-07T03:58:51.625Z,17.77
2017-07-07T04:00:05.713Z,17.6
2017-07-07T04:01:21.183Z,17.65
2017-07-07T04:02:36.882Z,17.61
2017-07-07T04:03:52.299Z,17.61
2017-07-07T04:05:07.748Z,17.76
2017-07-07T04:06:23.226Z,17.64
2017-07-07T04:07:35.919Z,17.77
2017-07-07T04:08:51.795Z,17.77
2017-07-07T04:10:07.441Z,17.7
2017-07-07T04:11:21.560Z,17.75
2017-07-07T04:12:36.969Z,17.72
2017-07-07T04:13:52.671Z,17.77
2017-07-07T04:15:08.228Z,17.67
2017-07-07T04:16:23.906Z,17.58
2017-07-07T04:17:39.369Z,17.55
2017-07-07T04:18:55.240Z,17.61
2017-07-07T04:20:10.690Z,17.49
2017-07-07T04:21:25.016Z,17.61
2017-07-07T04:22:40.455Z,17.6
2017-07-07T04:23:56.122Z,17.57
2017-07-07T04:25:11.652Z,17.61
2017-07-07T04:26:27.255Z,17.61
2017-07-07T04:27:42.666Z,17.65
2017-07-07T04:28:58.356Z,17.72
2017-07-07T04:30:13.825Z,17.77
2017-07-07T04:31:29.480Z,17.75
2017-07-07T04:32:45.262Z,17.73
2017-07-07T04:34:01.278Z,17.73
2017-07-07T04:35:16.758Z,17.68
2017-07-07T04:36:32.198Z,17.73
2017-07-07T04:38:02.104Z,17.79
2017-07-07T04:39:17.501Z,17.86
2017-07-07T04:40:31.617Z,17.82
2017-07-07T04:41:47.030Z,17.83
2017-07-07T04:43:01.567Z,17.82
2017-07-07T04:44:17.041Z,17.86
2017-07-07T04:45:32.482Z,17.85
2017-07-07T04:46:46.589Z,17.72
2017-07-07T04:48:02.371Z,17.7
2017-07-07T04:49:17.749Z,17.75
2017-07-07T04:50:33.165Z,17.75
2017-07-07T04:51:48.769Z,17.64
2017-07-07T04:53:04.447Z,17.72
2017-07-07T04:54:19.888Z,17.7
2017-07-07T04:55:35.660Z,17.7
2017-07-07T04:56:51.137Z,17.68
2017-07-07T04:58:06.450Z,17.75
2017-07-07T04:59:22.036Z,17.77
2017-07-07T05:00:37.477Z,17.72
2017-07-07T05:01:52.934Z,17.72
2017-07-07T05:03:08.664Z,17.72
2017-07-07T05:04:24.344Z,17.75
2017-07-07T05:05:39.864Z,17.76
2017-07-07T05:06:53.981Z,17.7
2017-07-07T05:08:09.738Z,17.89
2017-07-07T05:09:25.445Z,17.86
2017-07-07T05:10:41.137Z,17.87
2017-07-07T05:11:56.531Z,17.86
2017-07-07T05:13:12.246Z,17.97
2017-07-07T05:14:27.726Z,17.91
2017-07-07T05:15:43.153Z,18
2017-07-07T05:16:58.547Z,18.04
2017-07-07T05:18:14.263Z,18.01
2017-07-07T05:19:29.709Z,18.05
2017-07-07T05:20:45.148Z,18.19
2017-07-07T05:22:00.593Z,18.16
2017-07-07T05:23:47.156Z,18.32
2017-07-07T05:25:01.280Z,18.31
2017-07-07T05:26:16.727Z,18.23
2017-07-07T05:27:29.406Z,18.44
2017-07-07T05:28:45.102Z,18.44
2017-07-07T05:30:00.718Z,18.56
2017-07-07T05:31:16.124Z,18.63
2017-07-07T05:32:31.578Z,18.62
2017-07-07T05:33:47.325Z,18.67
2017-07-07T05:35:02.795Z,18.78
2017-07-07T05:36:18.239Z,18.9
2017-07-07T05:37:33.708Z,18.93
2017-07-07T05:38:49.341Z,18.98
2017-07-07T05:40:02.115Z,19
2017-07-07T05:41:17.560Z,18.94
2017-07-07T05:42:32.984Z,18.98
2017-07-07T05:43:47.395Z,19
2017-07-07T05:45:02.891Z,19.05
2017-07-07T05:46:18.355Z,19.1
2017-07-07T05:47:33.818Z,19.08
2017-07-07T05:48:49.568Z,19.18
2017-07-07T05:50:05.060Z,19.13
2017-07-07T05:51:20.146Z,19.1
2017-07-07T05:52:35.801Z,19.09
2017-07-07T05:53:51.522Z,19.19
2017-07-07T05:55:06.966Z,19.13
2017-07-07T05:56:22.398Z,19.16
2017-07-07T05:57:37.923Z,19.33
2017-07-07T05:58:53.573Z,19.31
2017-07-07T06:00:09.248Z,19.23
2017-07-07T06:01:24.959Z,19.33
2017-07-07T06:02:40.385Z,19.4
2017-07-07T06:03:54.657Z,19.49
2017-07-07T06:05:10.117Z,19.48
2017-07-07T06:06:25.556Z,19.55
2017-07-07T06:07:41.024Z,19.65
2017-07-07T06:08:56.937Z,19.63
2017-07-07T06:10:12.403Z,19.68
2017-07-07T06:11:27.854Z,19.73
2017-07-07T06:12:43.325Z,19.67
2017-07-07T06:13:59.276Z,19.76
2017-07-07T06:15:14.747Z,19.85
2017-07-07T06:16:30.282Z,19.82
2017-07-07T06:17:45.754Z,19.88
2017-07-07T06:19:01.543Z,19.79
2017-07-07T06:20:17.047Z,19.9
2017-07-07T06:21:32.430Z,19.9
2017-07-07T06:22:46.622Z,19.97
2017-07-07T06:24:02.308Z,19.95
2017-07-07T06:25:17.766Z,19.98
2017-07-07T06:26:33.259Z,20.05
2017-07-07T06:27:48.726Z,20.04
2017-07-07T06:29:04.462Z,20.01
2017-07-07T06:30:18.982Z,19.98
2017-07-07T06:31:34.445Z,19.98
2017-07-07T06:32:49.562Z,20.01
2017-07-07T06:34:05.538Z,19.97
2017-07-07T06:35:21.219Z,19.89
2017-07-07T06:36:36.885Z,19.88
2017-07-07T06:37:52.354Z,19.88
2017-07-07T06:39:08.016Z,19.88
2017-07-07T06:40:23.447Z,19.83
2017-07-07T06:41:38.921Z,19.83
2017-07-07T06:42:54.360Z,19.83
2017-07-07T06:44:10.048Z,19.9
2017-07-07T06:45:25.589Z,19.82
2017-07-07T06:46:40.994Z,19.86
2017-07-07T06:47:55.302Z,19.83
2017-07-07T06:49:09.446Z,19.88
2017-07-07T06:50:25.154Z,19.93
2017-07-07T06:51:40.631Z,19.89
2017-07-07T06:52:56.039Z,19.92
2017-07-07T06:54:10.002Z,19.92
2017-07-07T06:55:24.349Z,19.98
2017-07-07T06:56:38.520Z,19.95
2017-07-07T06:57:53.948Z,20
2017-07-07T06:59:09.355Z,20.03
2017-07-07T07:00:25.098Z,20
2017-07-07T07:01:40.538Z,20.05
2017-07-07T07:02:54.672Z,20.01
2017-07-07T07:04:10.135Z,20.04
2017-07-07T07:05:25.891Z,20
2017-07-07T07:06:41.318Z,20.01
2017-07-07T07:07:56.800Z,19.9
2017-07-07T07:09:12.331Z,19.89
2017-07-07T07:10:28.059Z,19.85
2017-07-07T07:11:43.523Z,19.88
2017-07-07T07:12:58.943Z,19.85
2017-07-07T07:14:12.979Z,19.86
2017-07-07T07:15:28.705Z,19.78
2017-07-07T07:16:44.211Z,19.86
2017-07-07T07:17:59.690Z,19.71
2017-07-07T07:19:14.764Z,19.82
2017-07-07T07:20:30.576Z,19.71
2017-07-07T07:21:45.987Z,19.74
2017-07-07T07:23:01.052Z,19.67
2017-07-07T07:24:15.199Z,19.63
2017-07-07T07:25:30.922Z,19.64
2017-07-07T07:26:46.401Z,19.65
2017-07-07T07:28:01.857Z,19.61
2017-07-07T07:29:17.316Z,19.68
2017-07-07T07:30:32.983Z,19.56
2017-07-07T07:31:47.279Z,19.65
2017-07-07T07:33:02.948Z,19.64
2017-07-07T07:34:17.130Z,19.64
2017-07-07T07:35:31.559Z,19.61
2017-07-07T07:36:44.359Z,19.68
2017-07-07T07:37:59.830Z,19.53
2017-07-07T07:39:15.291Z,19.65
2017-07-07T07:40:30.623Z,19.61
2017-07-07T07:41:46.103Z,19.58
2017-07-07T07:43:01.528Z,19.73
2017-07-07T07:44:16.978Z,19.7
2017-07-07T07:45:31.255Z,19.73
2017-07-07T07:46:45.406Z,19.8
2017-07-07T07:48:00.865Z,19.83
2017-07-07T07:49:16.299Z,19.85
2017-07-07T07:50:30.693Z,19.9
2017-07-07T07:51:46.126Z,19.98
2017-07-07T07:53:01.983Z,20.03
2017-07-07T07:54:17.445Z,20.11
2017-07-07T07:55:33.121Z,20.14
2017-07-07T07:56:48.564Z,20.26
2017-07-07T07:58:03.971Z,20.3
2017-07-07T07:59:18.097Z,20.34
2017-07-07T08:00:33.821Z,20.35
2017-07-07T08:01:49.347Z,20.48
2017-07-07T08:03:04.862Z,20.45
2017-07-07T08:04:19.119Z,20.57
2017-07-07T08:05:34.832Z,20.63
2017-07-07T08:06:50.215Z,20.72
2017-07-07T08:08:05.707Z,20.79
2017-07-07T08:09:18.573Z,20.82
2017-07-07T08:10:34.276Z,20.93
2017-07-07T08:11:50.157Z,21
2017-07-07T08:13:05.609Z,21.09
2017-07-07T08:14:21.072Z,21.22
2017-07-07T08:15:36.489Z,21.22
2017-07-07T08:16:50.981Z,21.27
2017-07-07T08:18:06.432Z,21.38
2017-07-07T08:19:21.980Z,21.43
2017-07-07T08:20:37.558Z,21.56
2017-07-07T08:21:53.300Z,21.58
2017-07-07T08:23:08.765Z,21.58
2017-07-07T08:24:24.234Z,21.6
2017-07-07T08:25:39.709Z,21.66
2017-07-07T08:26:55.393Z,21.6
2017-07-07T08:28:09.564Z,21.69
2017-07-07T08:29:25.204Z,21.66
2017-07-07T08:30:40.666Z,21.65
2017-07-07T08:31:56.413Z,21.65
2017-07-07T08:33:11.853Z,21.64
2017-07-07T08:34:27.224Z,21.65
2017-07-07T08:35:41.575Z,21.64
2017-07-07T08:36:55.999Z,21.71
2017-07-07T08:38:11.471Z,21.58
2017-07-07T08:39:26.926Z,21.58
2017-07-07T08:40:42.502Z,21.53
2017-07-07T08:41:58.232Z,21.56
2017-07-07T08:43:13.673Z,21.49
2017-07-07T08:44:29.202Z,21.49
2017-07-07T08:46:15.782Z,21.48
2017-07-07T08:47:31.220Z,21.54
2017-07-07T08:48:46.714Z,21.53
2017-07-07T08:50:02.251Z,21.56
2017-07-07T08:51:17.981Z,21.54
2017-07-07T08:52:33.455Z,21.58
2017-07-07T08:53:47.528Z,21.61
2017-07-07T08:55:03.036Z,21.71
2017-07-07T08:56:18.732Z,21.76
2017-07-07T08:57:34.243Z,21.9
2017-07-07T08:58:49.927Z,21.94
2017-07-07T09:00:05.322Z,21.97
2017-07-07T09:01:21.060Z,22.24
2017-07-07T09:02:36.514Z,22.55
2017-07-07T09:03:52.163Z,22.79
2017-07-07T09:05:06.325Z,23.39
2017-07-07T09:06:22.017Z,24.24
2017-07-07T09:07:36.163Z,24.91
2017-07-07T09:08:51.812Z,25.58
2017-07-07T09:10:07.348Z,26.15
2017-07-07T09:11:23.124Z,26.78
2017-07-07T09:12:38.584Z,27.33
2017-07-07T09:13:54.021Z,27.87
2017-07-07T09:15:09.585Z,28.35
2017-07-07T09:16:25.133Z,28.8
2017-07-07T09:17:40.601Z,28.94
2017-07-07T09:18:56.049Z,29.17
2017-07-07T09:20:10.130Z,29.28
2017-07-07T09:21:25.819Z,29.25
2017-07-07T09:22:41.298Z,29.09
2017-07-07T09:23:56.725Z,29.01
2017-07-07T09:25:12.173Z,28.8
2017-07-07T09:26:28.028Z,28.54
2017-07-07T09:27:43.594Z,28.32
2017-07-07T09:28:59.039Z,28.16
2017-07-07T09:30:14.554Z,27.86
2017-07-07T09:31:30.546Z,27.49
2017-07-07T09:32:46.000Z,27.11
2017-07-07T09:34:01.413Z,27.15
2017-07-07T09:35:16.862Z,26.85
2017-07-07T09:36:32.550Z,26.58
2017-07-07T09:37:47.989Z,26.52
2017-07-07T09:39:02.156Z,26.82
2017-07-07T09:40:17.593Z,26.93
2017-07-07T09:41:33.273Z,26.88
2017-07-07T09:42:48.711Z,26.9
2017-07-07T09:44:04.227Z,26.77
2017-07-07T09:45:19.681Z,26.9
2017-07-07T09:46:35.382Z,26.89
2017-07-07T09:47:50.873Z,26.85
2017-07-07T09:49:06.548Z,26.85
2017-07-07T09:50:21.999Z,26.99
2017-07-07T09:51:37.705Z,26.86
2017-07-07T09:52:53.162Z,26.67
2017-07-07T09:54:07.328Z,26.64
2017-07-07T09:55:22.776Z,26.56
2017-07-07T09:57:08.005Z,26.4
2017-07-07T09:58:23.474Z,26.45
2017-07-07T09:59:39.121Z,26.48
2017-07-07T10:00:54.590Z,26.36
2017-07-07T10:02:10.356Z,26.48
2017-07-07T10:03:25.906Z,26.49
2017-07-07T10:04:40.013Z,26.78
2017-07-07T10:05:54.029Z,27.12
2017-07-07T10:07:08.429Z,27.53
2017-07-07T10:08:23.910Z,28.01
2017-07-07T10:09:39.462Z,28.6
2017-07-07T10:10:54.909Z,28.96
2017-07-07T10:12:10.653Z,29.31
2017-07-07T10:13:25.753Z,29.66
2017-07-07T10:14:41.253Z,29.81
2017-07-07T10:15:55.451Z,30.25
2017-07-07T10:17:11.193Z,30.74
2017-07-07T10:18:26.594Z,30.9
2017-07-07T10:19:42.109Z,31.15
2017-07-07T10:20:57.604Z,31.32
2017-07-07T10:22:13.306Z,31.57
2017-07-07T10:23:28.782Z,31.68
2017-07-07T10:24:44.237Z,31.54
2017-07-07T10:25:59.726Z,31.47
2017-07-07T10:27:15.461Z,31.38
2017-07-07T10:28:30.998Z,30.86
2017-07-07T10:29:46.475Z,30.66
2017-07-07T10:31:01.926Z,30.6
2017-07-07T10:32:17.565Z,30.72
2017-07-07T10:33:33.033Z,30.7
2017-07-07T10:34:48.497Z,30.81
2017-07-07T10:36:04.020Z,30.82
2017-07-07T10:37:18.397Z,30.74
2017-07-07T10:38:34.060Z,30.96
2017-07-07T10:39:49.530Z,30.86
2017-07-07T10:41:05.217Z,30.86
2017-07-07T10:42:20.970Z,30.93
2017-07-07T10:43:36.438Z,31.09
2017-07-07T10:44:51.958Z,31.22
2017-07-07T10:46:07.596Z,31.47
2017-07-07T10:47:23.298Z,31.7
2017-07-07T10:48:38.773Z,31.94
2017-07-07T10:49:52.972Z,32.09
2017-07-07T10:51:08.440Z,32.25
2017-07-07T10:52:24.345Z,32.16
2017-07-07T10:53:39.820Z,32.26
2017-07-07T10:54:55.218Z,32.44
2017-07-07T10:56:10.697Z,32.44
2017-07-07T10:57:26.410Z,32.51
2017-07-07T10:58:41.876Z,32.62
2017-07-07T10:59:57.379Z,32.59
2017-07-07T11:01:12.840Z,32.35
2017-07-07T11:02:27.273Z,32.19
2017-07-07T11:03:42.791Z,31.85
2017-07-07T11:04:58.290Z,31.68
2017-07-07T11:06:13.990Z,31.58
2017-07-07T11:07:29.741Z,31.37
2017-07-07T11:08:45.219Z,31.25
2017-07-07T11:10:14.464Z,31.12
2017-07-07T11:11:30.106Z,31.1
2017-07-07T11:12:45.793Z,31
2017-07-07T11:14:01.294Z,31.07
2017-07-07T11:15:16.850Z,31.07
2017-07-07T11:16:32.316Z,31.09
2017-07-07T11:17:48.067Z,31.1
2017-07-07T11:19:03.558Z,31.04
2017-07-07T11:20:19.022Z,30.97
2017-07-07T11:21:34.497Z,31.1
2017-07-07T11:22:49.927Z,31.04
2017-07-07T11:24:05.596Z,31.2
2017-07-07T11:25:21.079Z,31.28
2017-07-07T11:26:36.505Z,31.42
2017-07-07T11:27:52.455Z,31.61
2017-07-07T11:29:07.903Z,31.66
2017-07-07T11:30:23.347Z,31.68
2017-07-07T11:32:09.638Z,31.63
2017-07-07T11:33:25.403Z,31.7
2017-07-07T11:34:40.884Z,31.75
2017-07-07T11:35:56.404Z,31.65
2017-07-07T11:37:11.859Z,31.65
2017-07-07T11:38:27.681Z,31.66
2017-07-07T11:39:43.146Z,31.63
2017-07-07T11:40:58.653Z,31.63
2017-07-07T11:42:14.165Z,31.61
2017-07-07T11:43:29.862Z,31.54
2017-07-07T11:44:45.548Z,31.57
2017-07-07T11:46:01.042Z,31.58
2017-07-07T11:47:16.522Z,31.58
2017-07-07T11:48:31.123Z,31.42
2017-07-07T11:49:46.608Z,31.34
2017-07-07T11:51:02.149Z,31.2
2017-07-07T11:52:16.463Z,31.16
2017-07-07T11:53:32.191Z,31.25
2017-07-07T11:54:47.685Z,31.27
2017-07-07T11:56:01.689Z,31.32
2017-07-07T11:57:17.150Z,31.44
2017-07-07T11:58:32.825Z,31.44
2017-07-07T11:59:48.275Z,31.55
2017-07-07T12:01:03.732Z,31.6
2017-07-07T12:02:17.878Z,31.63
2017-07-07T12:03:33.642Z,31.63
2017-07-07T12:04:49.082Z,31.5
2017-07-07T12:06:18.238Z,31.41
2017-07-07T12:07:33.706Z,31.41
2017-07-07T12:08:49.573Z,31.44
2017-07-07T12:10:05.090Z,31.5
2017-07-07T12:11:20.621Z,31.51
2017-07-07T12:12:35.733Z,31.46
2017-07-07T12:13:51.445Z,31.42
2017-07-07T12:15:07.240Z,31.28
2017-07-07T12:16:22.756Z,31.25
2017-07-07T12:17:38.226Z,31.15
2017-07-07T12:18:53.999Z,30.91
2017-07-07T12:20:09.713Z,30.75
2017-07-07T12:21:25.200Z,30.48
2017-07-07T12:22:40.713Z,30.22
2017-07-07T12:23:56.691Z,29.91
2017-07-07T12:25:12.159Z,29.73
2017-07-07T12:26:27.817Z,29.73
2017-07-07T12:27:43.270Z,29.76
2017-07-07T12:28:59.025Z,29.92
2017-07-07T12:30:14.512Z,30.07
2017-07-07T12:31:28.567Z,30.26
2017-07-07T12:32:42.456Z,30.45
2017-07-07T12:33:58.161Z,30.42
2017-07-07T12:35:44.542Z,30.48
2017-07-07T12:37:00.027Z,30.53
2017-07-07T12:38:14.184Z,30.42
2017-07-07T12:39:29.883Z,30.19
2017-07-07T12:40:45.387Z,30.03
2017-07-07T12:42:00.849Z,30.03
2017-07-07T12:43:14.968Z,29.87
2017-07-07T12:44:30.706Z,29.73
2017-07-07T12:45:59.787Z,29.58
2017-07-07T12:47:15.334Z,29.43
2017-07-07T12:48:30.918Z,29.35
2017-07-07T12:49:46.589Z,29.28
2017-07-07T12:51:02.158Z,29.18
2017-07-07T12:52:17.654Z,29.03
2017-07-07T12:53:33.120Z,29.02
2017-07-07T12:54:48.885Z,28.89
2017-07-07T12:56:04.388Z,28.88
2017-07-07T12:57:19.883Z,28.79
2017-07-07T12:58:35.396Z,28.73
2017-07-07T12:59:51.107Z,28.69
2017-07-07T13:01:06.576Z,28.6
2017-07-07T13:02:22.033Z,28.74
2017-07-07T13:03:51.126Z,28.67
2017-07-07T13:05:07.089Z,28.53
2017-07-07T13:06:22.558Z,28.64
2017-07-07T13:07:38.088Z,28.53
2017-07-07T13:08:53.615Z,28.57
2017-07-07T13:10:09.354Z,28.57
2017-07-07T13:11:24.853Z,28.57
2017-07-07T13:12:39.952Z,28.67
2017-07-07T13:13:55.632Z,28.69
2017-07-07T13:15:11.323Z,28.79
2017-07-07T13:16:26.988Z,28.6
2017-07-07T13:17:42.483Z,28.49
2017-07-07T13:18:56.624Z,28.53
2017-07-07T13:20:12.358Z,28.6
2017-07-07T13:21:26.482Z,28.5
2017-07-07T13:22:41.958Z,28.49
2017-07-07T13:23:58.039Z,28.49
2017-07-07T13:25:44.601Z,28.46
2017-07-07T13:27:00.273Z,28.45
2017-07-07T13:28:15.899Z,28.49
2017-07-07T13:29:31.369Z,28.49
2017-07-07T13:30:45.656Z,28.34
2017-07-07T13:31:59.976Z,28.34
2017-07-07T13:33:15.581Z,28.23
2017-07-07T13:34:31.089Z,28.23
2017-07-07T13:35:46.769Z,28.24
2017-07-07T13:37:02.292Z,28.2
2017-07-07T13:38:17.769Z,28.14
2017-07-07T13:40:04.089Z,28.01
2017-07-07T13:41:19.732Z,27.97
2017-07-07T13:42:35.385Z,27.89
2017-07-07T13:43:50.873Z,27.9
2017-07-07T13:45:06.527Z,27.97
2017-07-07T13:46:22.202Z,27.87
2017-07-07T13:47:37.895Z,27.83
2017-07-07T13:48:53.615Z,27.71
2017-07-07T13:50:09.079Z,27.76
2017-07-07T13:51:24.811Z,27.72
2017-07-07T13:52:40.347Z,27.7
2017-07-07T13:53:55.820Z,27.67
2017-07-07T13:55:09.808Z,27.77
2017-07-07T13:56:25.533Z,27.76
2017-07-07T13:57:41.045Z,27.79
2017-07-07T13:58:56.532Z,27.85
2017-07-07T14:00:12.222Z,27.76
2017-07-07T14:01:27.925Z,27.76
2017-07-07T14:02:43.420Z,27.71
2017-07-07T14:03:57.578Z,27.74
2017-07-07T14:05:11.559Z,27.65
2017-07-07T14:06:27.355Z,27.6
2017-07-07T14:07:42.853Z,27.53
2017-07-07T14:08:58.368Z,27.58
2017-07-07T14:10:12.489Z,27.5
2017-07-07T14:11:28.451Z,27.53
2017-07-07T14:12:43.935Z,27.55
2017-07-07T14:13:59.416Z,27.49
2017-07-07T14:15:45.747Z,27.42
2017-07-07T14:17:00.053Z,27.39
2017-07-07T14:18:15.519Z,27.37
2017-07-07T14:19:29.703Z,27.42
2017-07-07T14:20:45.391Z,27.3
2017-07-07T14:22:01.117Z,27.26
2017-07-07T14:23:16.569Z,27.1
2017-07-07T14:24:32.082Z,27.14
2017-07-07T14:25:47.561Z,27.15
2017-07-07T14:27:03.268Z,27.03
2017-07-07T14:28:18.770Z,27.04
2017-07-07T14:29:34.634Z,26.99
2017-07-07T14:30:50.197Z,26.99
2017-07-07T14:32:05.926Z,27.04
2017-07-07T14:33:21.414Z,26.98
2017-07-07T14:35:07.732Z,26.89
2017-07-07T14:36:23.214Z,26.93
2017-07-07T14:37:38.921Z,26.93
2017-07-07T14:38:54.383Z,26.86
2017-07-07T14:40:10.005Z,26.89
2017-07-07T14:41:25.475Z,26.89
2017-07-07T14:42:40.835Z,26.96
2017-07-07T14:43:56.266Z,27.01
2017-07-07T14:45:11.748Z,26.99
2017-07-07T14:46:27.193Z,26.99
2017-07-07T14:47:41.635Z,27.03
2017-07-07T14:48:57.139Z,27.03
2017-07-07T14:50:12.653Z,26.95
2017-07-07T14:51:28.305Z,26.93
2017-07-07T14:52:44.049Z,26.92
2017-07-07T14:53:59.514Z,26.95
2017-07-07T14:55:14.976Z,26.95
2017-07-07T14:56:30.600Z,26.99
2017-07-07T14:57:46.329Z,27.03
2017-07-07T14:59:01.773Z,27.11
2017-07-07T15:00:17.274Z,27.05
2017-07-07T15:01:32.767Z,27.12
2017-07-07T15:02:48.672Z,27.19
2017-07-07T15:04:04.099Z,27.12
2017-07-07T15:05:48.970Z,27.07
2017-07-07T15:07:04.555Z,27.03
2017-07-07T15:08:20.279Z,27.11
2017-07-07T15:09:35.822Z,27.03
2017-07-07T15:10:51.282Z,26.95
2017-07-07T15:12:05.347Z,26.95
2017-07-07T15:13:21.163Z,26.93
2017-07-07T15:14:36.705Z,26.78
2017-07-07T15:15:52.139Z,26.82
2017-07-07T15:17:07.590Z,26.8
2017-07-07T15:18:23.559Z,26.68
2017-07-07T15:19:37.716Z,26.73
2017-07-07T15:20:53.168Z,26.68
2017-07-07T15:22:07.314Z,26.68
2017-07-07T15:23:21.769Z,26.64
2017-07-07T15:24:37.258Z,26.67
2017-07-07T15:25:52.784Z,26.73
2017-07-07T15:27:08.230Z,26.68
2017-07-07T15:28:22.746Z,26.71
2017-07-07T15:29:38.227Z,26.68
2017-07-07T15:30:53.765Z,26.59
2017-07-07T15:32:09.225Z,26.56
2017-07-07T15:33:24.928Z,26.56
2017-07-07T15:34:40.731Z,26.56
2017-07-07T15:35:56.238Z,26.52
2017-07-07T15:37:11.706Z,26.53
2017-07-07T15:38:27.407Z,26.52
2017-07-07T15:39:42.845Z,26.64
2017-07-07T15:40:58.299Z,26.61
2017-07-07T15:42:13.745Z,26.56
2017-07-07T15:43:29.533Z,26.51
2017-07-07T15:44:43.750Z,26.51
2017-07-07T15:45:59.224Z,26.55
2017-07-07T15:47:14.729Z,26.58
2017-07-07T15:48:30.558Z,26.55
2017-07-07T15:49:46.034Z,26.58
2017-07-07T15:51:01.528Z,26.64
2017-07-07T15:52:16.691Z,26.58
2017-07-07T15:53:32.628Z,26.59
2017-07-07T15:54:48.093Z,26.55
2017-07-07T15:56:03.237Z,26.53
2017-07-07T15:57:17.439Z,26.53
2017-07-07T15:58:33.166Z,26.46
2017-07-07T15:59:48.632Z,26.46
2017-07-07T16:01:04.105Z,26.45
2017-07-07T16:02:19.532Z,26.4
2017-07-07T16:03:35.256Z,26.45
2017-07-07T16:04:50.762Z,26.46
2017-07-07T16:06:19.956Z,26.49
2017-07-07T16:07:35.415Z,26.56
2017-07-07T16:08:51.358Z,26.61
2017-07-07T16:10:06.881Z,26.62
2017-07-07T16:11:22.383Z,26.53
2017-07-07T16:12:36.400Z,26.58
2017-07-07T16:13:50.468Z,26.62
2017-07-07T16:15:05.970Z,26.64
2017-07-07T16:16:21.439Z,26.56
2017-07-07T16:17:36.963Z,26.56
2017-07-07T16:18:52.717Z,26.49
2017-07-07T16:20:08.194Z,26.52
2017-07-07T16:21:23.663Z,26.52
2017-07-07T16:22:39.154Z,26.48
2017-07-07T16:23:55.073Z,26.41